Terminal Aerodrome Forecast
Issued by NWS Springfield, MO

Home | Current Version | Previous Version | Text Only | Print | Product List | Glossary On
Versions: 1 2 3 4 5 6 7 8 9 10 11 12 13 14 15
237
FTUS43 KSGF 272322
TAFSGF
TAF
KSGF 272322Z 2800/2824 31020G30KT 3SM +TSRAGR BR SCT025 BKN070CB
     FM280100 04010KT P6SM VCTS BKN070CB
      TEMPO 2801/2802 VRB20G30KT 2SM +TSRA BR OVC025CB
     FM280200 16006KT P6SM VCTS OVC090CB
     FM280800 27005KT P6SM VCTS BKN025CB
     FM281200 32005KT P6SM BKN008
     FM282000 32007KT P6SM BKN050=

USA.gov is the U.S. government's official web portal to all federal, state and local government web resources and services.